createdAt,value
2022-12-25T00:00:20.776Z,13.60
2022-12-25T00:02:49.529Z,13.60
2022-12-25T00:05:17.430Z,13.50
2022-12-25T00:07:45.555Z,13.60
2022-12-25T00:10:13.882Z,13.50
2022-12-25T00:12:42.034Z,13.50
2022-12-25T00:15:10.211Z,13.50
2022-12-25T00:17:38.313Z,13.50
2022-12-25T00:20:06.984Z,13.50
2022-12-25T00:22:34.920Z,13.50
2022-12-25T00:25:02.786Z,13.50
2022-12-25T00:27:34.156Z,13.50
2022-12-25T00:30:02.418Z,13.50
2022-12-25T00:32:30.309Z,13.50
2022-12-25T00:34:58.225Z,13.40
2022-12-25T00:37:26.032Z,13.40
2022-12-25T00:39:54.186Z,13.40
2022-12-25T00:42:22.141Z,13.40
2022-12-25T00:44:51.340Z,13.40
2022-12-25T00:47:19.470Z,13.40
2022-12-25T00:49:47.620Z,13.40
2022-12-25T00:52:15.751Z,13.40
2022-12-25T00:54:43.892Z,13.40
2022-12-25T00:57:11.719Z,13.40
2022-12-25T00:59:39.729Z,13.30
2022-12-25T01:02:26.018Z,13.30
2022-12-25T01:04:57.172Z,13.40
2022-12-25T01:07:26.966Z,13.40
2022-12-25T01:10:13.640Z,13.40
2022-12-25T01:12:43.694Z,13.40
2022-12-25T01:15:13.624Z,13.40
2022-12-25T01:17:42.923Z,13.40
2022-12-25T01:20:12.436Z,13.30
2022-12-25T01:22:40.373Z,13.30
2022-12-25T01:25:10.925Z,13.40
2022-12-25T01:27:41.379Z,13.30
2022-12-25T01:30:09.869Z,13.40
2022-12-25T01:32:38.028Z,13.40
2022-12-25T01:35:06.361Z,13.40
2022-12-25T01:37:34.227Z,13.40
2022-12-25T01:40:02.282Z,13.50
2022-12-25T01:42:30.442Z,13.50
2022-12-25T01:45:41.492Z,13.50
2022-12-25T01:48:19.224Z,13.50
2022-12-25T01:50:54.058Z,13.50
2022-12-25T01:53:23.288Z,13.50
2022-12-25T01:55:55.055Z,13.50
2022-12-25T01:58:23.817Z,13.50
2022-12-25T02:00:53.431Z,13.50
2022-12-25T02:03:23.037Z,13.40
2022-12-25T02:05:52.585Z,13.40
2022-12-25T02:08:21.995Z,13.40
2022-12-25T02:10:50.250Z,13.40
2022-12-25T02:13:21.172Z,13.40
2022-12-25T02:16:01.958Z,13.40
2022-12-25T02:18:50.757Z,13.30
2022-12-25T02:21:56.769Z,13.30
2022-12-25T02:25:11.518Z,13.30
2022-12-25T02:28:17.546Z,13.30
2022-12-25T02:31:02.288Z,13.30
2022-12-25T02:34:03.299Z,13.30
2022-12-25T02:36:39.496Z,13.30
2022-12-25T02:39:53.222Z,13.20
2022-12-25T02:43:07.345Z,13.20
2022-12-25T02:45:53.530Z,13.20
2022-12-25T02:48:46.112Z,13.10
2022-12-25T02:51:36.739Z,13.00
2022-12-25T02:54:27.750Z,13.00
2022-12-25T02:57:17.527Z,13.00
2022-12-25T03:00:08.506Z,12.90
2022-12-25T03:02:56.085Z,12.90
2022-12-25T03:05:46.439Z,12.90
2022-12-25T03:08:20.748Z,12.80
2022-12-25T03:11:21.096Z,12.80
2022-12-25T03:13:56.736Z,12.80
2022-12-25T03:16:44.333Z,12.80
2022-12-25T03:19:33.491Z,12.80
2022-12-25T03:22:20.473Z,12.80
2022-12-25T03:25:07.946Z,12.80
2022-12-25T03:27:36.687Z,12.70
2022-12-25T03:30:23.970Z,12.70
2022-12-25T03:33:49.481Z,12.70
2022-12-25T03:36:28.923Z,12.70
2022-12-25T03:39:29.310Z,12.60
2022-12-25T03:42:20.998Z,12.60
2022-12-25T03:45:22.053Z,12.60
2022-12-25T03:47:54.037Z,12.60
2022-12-25T03:50:56.120Z,12.60
2022-12-25T03:53:47.979Z,12.50
2022-12-25T03:56:54.418Z,12.50
2022-12-25T03:59:42.755Z,12.50
2022-12-25T04:02:29.767Z,12.50
2022-12-25T04:05:16.427Z,12.40
2022-12-25T04:08:02.803Z,12.50
2022-12-25T04:10:52.095Z,12.40
2022-12-25T04:13:38.980Z,12.40
2022-12-25T04:16:25.741Z,12.40
2022-12-25T04:19:12.480Z,12.40
2022-12-25T04:21:58.895Z,12.40
2022-12-25T04:24:45.405Z,12.40
2022-12-25T04:27:31.753Z,12.30
2022-12-25T04:30:21.371Z,12.30
2022-12-25T04:33:07.618Z,12.30
2022-12-25T04:35:54.043Z,12.30
2022-12-25T04:38:22.848Z,12.30
2022-12-25T04:40:51.114Z,12.30
2022-12-25T04:43:19.219Z,12.30
2022-12-25T04:45:57.484Z,12.30
2022-12-25T04:48:26.727Z,12.30
2022-12-25T04:50:55.483Z,12.30
2022-12-25T04:53:23.644Z,12.30
2022-12-25T04:56:01.311Z,12.30
2022-12-25T04:58:29.743Z,12.30
2022-12-25T05:01:01.655Z,12.30
2022-12-25T05:03:30.801Z,12.30
2022-12-25T05:05:59.201Z,12.30
2022-12-25T05:08:30.817Z,12.30
2022-12-25T05:10:59.257Z,12.20
2022-12-25T05:13:27.583Z,12.30
2022-12-25T05:15:56.166Z,12.20
2022-12-25T05:18:24.413Z,12.20
2022-12-25T05:20:56.026Z,12.20
2022-12-25T05:23:25.689Z,12.20
2022-12-25T05:25:53.533Z,12.20
2022-12-25T05:28:21.943Z,12.20
2022-12-25T05:30:50.343Z,12.20
2022-12-25T05:33:18.593Z,12.20
2022-12-25T05:35:46.914Z,12.20
2022-12-25T05:38:15.074Z,12.20
2022-12-25T05:40:43.522Z,12.20
2022-12-25T05:43:11.942Z,12.20
2022-12-25T05:45:40.262Z,12.20
2022-12-25T05:48:09.968Z,12.20
2022-12-25T05:50:41.306Z,12.20
2022-12-25T05:53:11.918Z,12.30
2022-12-25T05:55:44.308Z,12.20
2022-12-25T05:58:14.062Z,12.30
2022-12-25T06:00:44.376Z,12.20
2022-12-25T06:03:12.520Z,12.30
2022-12-25T06:05:40.433Z,12.30
2022-12-25T06:08:08.567Z,12.30
2022-12-25T06:10:37.196Z,12.40
2022-12-25T06:13:05.282Z,12.40
2022-12-25T06:15:33.616Z,12.40
2022-12-25T06:18:02.182Z,12.30
2022-12-25T06:20:29.904Z,12.30
2022-12-25T06:22:57.999Z,12.20
2022-12-25T06:25:26.116Z,12.20
2022-12-25T06:27:54.150Z,12.20
2022-12-25T06:30:22.336Z,12.20
2022-12-25T06:32:50.445Z,12.20
2022-12-25T06:35:18.236Z,12.30
2022-12-25T06:37:46.955Z,12.40
2022-12-25T06:40:15.103Z,12.50
2022-12-25T06:42:43.062Z,12.60
2022-12-25T06:45:11.409Z,12.70
2022-12-25T06:47:39.359Z,12.80
2022-12-25T06:50:07.591Z,13.00
2022-12-25T06:52:35.979Z,13.10
2022-12-25T06:55:03.955Z,13.30
2022-12-25T06:57:32.066Z,13.40
2022-12-25T06:59:59.972Z,13.50
2022-12-25T07:02:28.328Z,13.70
2022-12-25T07:04:56.239Z,13.80
2022-12-25T07:07:24.300Z,14.00
2022-12-25T07:09:52.595Z,14.10
2022-12-25T07:12:26.205Z,14.30
2022-12-25T07:14:57.270Z,14.50
2022-12-25T07:17:25.670Z,14.70
2022-12-25T07:19:53.631Z,14.90
2022-12-25T07:22:21.496Z,15.10
2022-12-25T07:24:49.331Z,15.30
2022-12-25T07:27:17.331Z,15.60
2022-12-25T07:29:45.118Z,15.80
2022-12-25T07:32:13.182Z,16.00
2022-12-25T07:34:41.295Z,16.30
2022-12-25T07:37:09.195Z,16.50
2022-12-25T07:39:37.139Z,16.80
2022-12-25T07:42:05.332Z,17.00
2022-12-25T07:44:33.038Z,17.30
2022-12-25T07:47:01.063Z,17.50
2022-12-25T07:49:29.149Z,17.70
2022-12-25T07:51:57.411Z,18.00
2022-12-25T07:54:26.197Z,18.20
2022-12-25T07:56:54.459Z,18.40
2022-12-25T07:59:22.385Z,18.60
2022-12-25T08:01:51.425Z,18.80
2022-12-25T08:04:19.717Z,19.10
2022-12-25T08:06:47.985Z,19.30
2022-12-25T08:09:15.845Z,19.40
2022-12-25T08:11:47.603Z,19.50
2022-12-25T08:14:15.985Z,19.60
2022-12-25T08:16:45.046Z,19.90
2022-12-25T08:19:14.986Z,20.10
2022-12-25T08:21:42.934Z,20.30
2022-12-25T08:24:11.147Z,20.50
2022-12-25T08:26:39.448Z,20.80
2022-12-25T08:29:07.360Z,21.00
2022-12-25T08:31:39.457Z,21.30
2022-12-25T08:34:11.849Z,21.50
2022-12-25T08:36:42.196Z,21.40
2022-12-25T08:39:10.332Z,21.30
2022-12-25T08:41:41.244Z,21.60
2022-12-25T08:44:11.003Z,21.70
2022-12-25T08:46:40.584Z,21.70
2022-12-25T08:49:08.819Z,21.60
2022-12-25T08:51:37.639Z,21.50
2022-12-25T08:54:05.704Z,21.70
2022-12-25T08:56:33.598Z,21.80
2022-12-25T08:59:01.353Z,22.00
2022-12-25T09:01:29.977Z,22.40
2022-12-25T09:03:57.864Z,22.60
2022-12-25T09:06:26.312Z,22.80
2022-12-25T09:08:54.161Z,23.00
2022-12-25T09:11:22.821Z,23.20
2022-12-25T09:13:51.109Z,23.20
2022-12-25T09:16:22.403Z,23.70
2022-12-25T09:18:51.406Z,23.40
2022-12-25T09:21:20.045Z,23.60
2022-12-25T09:23:48.759Z,23.90
2022-12-25T09:26:18.605Z,24.30
2022-12-25T09:28:51.891Z,24.60
2022-12-25T09:31:22.783Z,24.50
2022-12-25T09:33:52.489Z,24.40
2022-12-25T09:36:23.860Z,24.70
2022-12-25T09:38:51.986Z,25.30
2022-12-25T09:41:38.676Z,25.70
2022-12-25T09:44:15.401Z,25.80
2022-12-25T09:46:52.594Z,26.00
2022-12-25T09:49:57.451Z,25.60
2022-12-25T09:52:44.527Z,25.20
2022-12-25T09:55:24.793Z,25.50
2022-12-25T09:57:58.777Z,25.80
2022-12-25T10:00:41.374Z,25.80
2022-12-25T10:04:03.148Z,25.90
2022-12-25T10:07:06.332Z,26.80
2022-12-25T10:10:14.873Z,26.40
2022-12-25T10:13:04.049Z,26.40
2022-12-25T10:15:55.070Z,27.10
2022-12-25T10:18:40.935Z,27.10
2022-12-25T10:21:13.915Z,27.00
2022-12-25T10:23:53.456Z,28.00
2022-12-25T10:26:25.590Z,27.40
2022-12-25T10:29:22.779Z,27.90
2022-12-25T10:31:55.227Z,27.70
2022-12-25T10:34:24.513Z,27.90
2022-12-25T10:36:52.678Z,28.10
2022-12-25T10:39:26.099Z,28.40
2022-12-25T10:42:20.012Z,28.40
2022-12-25T10:44:58.590Z,28.40
2022-12-25T10:47:32.945Z,29.10
2022-12-25T10:50:09.542Z,29.00
2022-12-25T10:53:00.782Z,29.20
2022-12-25T10:55:29.727Z,30.40
2022-12-25T10:57:59.058Z,31.20
2022-12-25T11:00:30.223Z,32.10
2022-12-25T11:02:59.601Z,32.70
2022-12-25T11:05:33.839Z,32.90
2022-12-25T11:08:03.117Z,32.50
2022-12-25T11:10:32.691Z,32.80
2022-12-25T11:13:08.800Z,33.20
2022-12-25T11:15:45.430Z,33.30
2022-12-25T11:18:23.465Z,34.10
2022-12-25T11:20:55.817Z,33.50
2022-12-25T11:23:25.978Z,33.70
2022-12-25T11:26:00.171Z,34.20
2022-12-25T11:28:30.742Z,34.40
2022-12-25T11:31:21.597Z,35.20
2022-12-25T11:34:02.610Z,34.90
2022-12-25T11:36:48.844Z,35.70
2022-12-25T11:39:41.176Z,36.00
2022-12-25T11:42:14.620Z,35.40
2022-12-25T11:45:09.314Z,35.90
2022-12-25T11:47:43.153Z,35.10
2022-12-25T11:50:18.196Z,33.80
2022-12-25T11:52:48.043Z,34.20
2022-12-25T11:55:21.497Z,34.10
2022-12-25T11:57:57.697Z,34.80
2022-12-25T12:00:26.078Z,34.60
2022-12-25T12:02:59.315Z,34.50
2022-12-25T12:05:34.819Z,35.30
2022-12-25T12:08:06.470Z,35.60
2022-12-25T12:11:19.270Z,35.40
2022-12-25T12:14:14.158Z,35.90
2022-12-25T12:16:42.790Z,36.00
2022-12-25T12:19:29.548Z,35.90
2022-12-25T12:22:01.010Z,36.80
2022-12-25T12:24:42.284Z,36.90
2022-12-25T12:27:33.756Z,36.80
2022-12-25T12:30:02.292Z,36.70
2022-12-25T12:32:48.271Z,36.10
2022-12-25T12:35:23.704Z,36.60
2022-12-25T12:38:02.225Z,36.70
2022-12-25T12:40:39.077Z,36.20
2022-12-25T12:43:24.157Z,36.30
2022-12-25T12:46:06.170Z,36.60
2022-12-25T12:48:43.303Z,37.60
2022-12-25T12:51:36.219Z,37.50
2022-12-25T12:54:25.302Z,38.10
2022-12-25T12:57:04.837Z,37.20
2022-12-25T12:59:47.629Z,37.20
2022-12-25T13:02:30.702Z,37.40
2022-12-25T13:05:30.566Z,37.40
2022-12-25T13:08:26.270Z,37.60
2022-12-25T13:11:09.347Z,37.50
2022-12-25T13:13:42.560Z,37.70
2022-12-25T13:16:34.681Z,37.60
2022-12-25T13:19:08.281Z,37.20
2022-12-25T13:21:36.387Z,36.80
2022-12-25T13:24:20.421Z,36.90
2022-12-25T13:26:48.953Z,37.10
2022-12-25T13:29:38.302Z,36.80
2022-12-25T13:32:09.150Z,36.20
2022-12-25T13:34:38.959Z,36.10
2022-12-25T13:37:10.435Z,36.60
2022-12-25T13:39:57.163Z,36.70
2022-12-25T13:42:28.942Z,36.90
2022-12-25T13:45:00.979Z,36.60
2022-12-25T13:47:34.624Z,36.20
2022-12-25T13:50:21.376Z,36.10
2022-12-25T13:52:50.580Z,35.60
2022-12-25T13:55:27.016Z,35.00
2022-12-25T13:58:00.562Z,34.90
2022-12-25T14:00:38.540Z,34.90
2022-12-25T14:03:08.285Z,35.10
2022-12-25T14:05:42.890Z,35.20
2022-12-25T14:08:17.669Z,34.40
2022-12-25T14:10:50.251Z,34.30
2022-12-25T14:13:22.863Z,33.50
2022-12-25T14:15:53.970Z,33.40
2022-12-25T14:18:24.603Z,33.30
2022-12-25T14:20:55.677Z,32.60
2022-12-25T14:23:23.763Z,31.70
2022-12-25T14:25:52.032Z,30.60
2022-12-25T14:28:33.579Z,29.70
2022-12-25T14:31:03.846Z,28.00
2022-12-25T14:33:39.187Z,26.70
2022-12-25T14:36:08.457Z,25.50
2022-12-25T14:38:36.344Z,24.40
2022-12-25T14:41:33.939Z,23.90
2022-12-25T14:44:06.700Z,23.40
2022-12-25T14:46:35.675Z,23.10
2022-12-25T14:49:21.865Z,22.80
2022-12-25T14:51:50.411Z,22.50
2022-12-25T14:54:23.709Z,22.20
2022-12-25T14:56:56.623Z,22.00
2022-12-25T14:59:26.992Z,21.70
2022-12-25T15:02:03.753Z,21.70
2022-12-25T15:04:32.368Z,21.60
2022-12-25T15:07:07.675Z,21.60
2022-12-25T15:09:36.693Z,21.70
2022-12-25T15:12:06.596Z,21.60
2022-12-25T15:14:36.871Z,21.40
2022-12-25T15:17:05.199Z,21.20
2022-12-25T15:19:38.974Z,21.00
2022-12-25T15:22:07.633Z,20.80
2022-12-25T15:24:35.782Z,20.60
2022-12-25T15:27:18.920Z,20.40
2022-12-25T15:32:36.047Z,20.20
2022-12-25T15:35:04.384Z,20.30
2022-12-25T15:37:32.543Z,20.20
2022-12-25T15:40:02.261Z,20.20
2022-12-25T15:42:30.975Z,20.10
2022-12-25T15:44:58.884Z,20.00
2022-12-25T15:47:27.142Z,19.80
2022-12-25T15:49:55.099Z,19.80
2022-12-25T15:52:23.251Z,19.60
2022-12-25T15:54:51.431Z,19.60
2022-12-25T15:57:23.514Z,19.50
2022-12-25T15:59:51.635Z,19.30
2022-12-25T16:02:22.639Z,19.20
2022-12-25T16:04:51.682Z,19.20
2022-12-25T16:07:25.340Z,19.10
2022-12-25T16:09:53.591Z,19.00
2022-12-25T16:12:21.769Z,18.90
2022-12-25T16:14:50.179Z,18.80
2022-12-25T16:17:18.317Z,18.70
2022-12-25T16:19:46.524Z,18.70
2022-12-25T16:22:19.754Z,18.60
2022-12-25T16:24:48.478Z,18.50
2022-12-25T16:27:16.576Z,18.50
2022-12-25T16:29:45.000Z,18.40
2022-12-25T16:32:14.578Z,18.40
2022-12-25T16:34:42.662Z,18.30
2022-12-25T16:37:13.730Z,18.20
2022-12-25T16:39:41.945Z,18.20
2022-12-25T16:42:09.973Z,18.10
2022-12-25T16:44:38.635Z,18.00
2022-12-25T16:47:06.835Z,17.90
2022-12-25T16:49:35.611Z,17.90
2022-12-25T16:52:04.564Z,17.80
2022-12-25T16:54:32.747Z,17.80
2022-12-25T16:57:00.686Z,17.70
2022-12-25T16:59:31.992Z,17.70
2022-12-25T17:02:00.597Z,17.70
2022-12-25T17:04:29.434Z,17.60
2022-12-25T17:06:57.765Z,17.60
2022-12-25T17:09:25.951Z,17.50
2022-12-25T17:11:54.213Z,17.50
2022-12-25T17:14:22.575Z,17.40
2022-12-25T17:16:52.191Z,17.30
2022-12-25T17:19:23.168Z,17.30
2022-12-25T17:21:52.268Z,17.10
2022-12-25T17:24:20.195Z,17.10
2022-12-25T17:26:48.838Z,17.00
2022-12-25T17:29:21.612Z,17.00
2022-12-25T17:31:51.047Z,17.00
2022-12-25T17:34:19.408Z,17.00
2022-12-25T17:36:48.012Z,16.90
2022-12-25T17:39:16.017Z,16.80
2022-12-25T17:41:44.388Z,16.80
2022-12-25T17:44:12.424Z,16.80
2022-12-25T17:46:40.774Z,16.80
2022-12-25T17:49:16.667Z,16.70
2022-12-25T17:51:45.443Z,16.70
2022-12-25T17:54:14.436Z,16.70
2022-12-25T17:56:42.661Z,16.60
2022-12-25T17:59:18.946Z,16.60
2022-12-25T18:01:48.436Z,16.70
2022-12-25T18:04:16.548Z,16.60
2022-12-25T18:06:45.235Z,16.60
2022-12-25T18:09:13.512Z,16.50
2022-12-25T18:11:43.934Z,16.50
2022-12-25T18:14:15.995Z,16.40
2022-12-25T18:16:47.360Z,16.40
2022-12-25T18:19:18.393Z,16.40
2022-12-25T18:21:46.724Z,16.30
2022-12-25T18:24:14.746Z,16.20
2022-12-25T18:26:43.372Z,16.20
2022-12-25T18:29:11.505Z,16.10
2022-12-25T18:31:39.704Z,16.10
2022-12-25T18:34:07.878Z,16.00
2022-12-25T18:36:37.315Z,16.00
2022-12-25T18:39:05.533Z,16.00
2022-12-25T18:41:54.119Z,16.00
2022-12-25T18:44:22.140Z,15.90
2022-12-25T18:46:50.460Z,15.90
2022-12-25T18:49:18.658Z,15.80
2022-12-25T18:51:46.582Z,15.80
2022-12-25T18:54:14.675Z,15.80
2022-12-25T18:56:42.648Z,15.80
2022-12-25T18:59:10.695Z,15.70
2022-12-25T19:01:38.542Z,15.60
2022-12-25T19:04:08.909Z,15.60
2022-12-25T19:06:37.002Z,15.60
2022-12-25T19:09:09.567Z,15.50
2022-12-25T19:11:45.867Z,15.50
2022-12-25T19:14:15.960Z,15.50
2022-12-25T19:16:45.153Z,15.40
2022-12-25T19:19:14.453Z,15.40
2022-12-25T19:21:42.722Z,15.40
2022-12-25T19:24:10.917Z,15.40
2022-12-25T19:26:38.908Z,15.40
2022-12-25T19:29:06.996Z,15.30
2022-12-25T19:31:35.171Z,15.30
2022-12-25T19:34:03.438Z,15.20
2022-12-25T19:36:33.138Z,15.10
2022-12-25T19:39:01.546Z,15.10
2022-12-25T19:41:29.633Z,15.10
2022-12-25T19:43:57.994Z,15.10
2022-12-25T19:46:29.731Z,15.10
2022-12-25T19:48:59.619Z,15.00
2022-12-25T19:51:30.533Z,15.10
2022-12-25T19:53:58.702Z,15.10
2022-12-25T19:56:29.463Z,15.10
2022-12-25T19:58:57.578Z,15.00
2022-12-25T20:01:27.819Z,15.00
2022-12-25T20:03:56.762Z,15.00
2022-12-25T20:06:28.114Z,15.00
2022-12-25T20:08:58.853Z,15.00
2022-12-25T20:11:28.719Z,15.00
2022-12-25T20:13:57.977Z,15.00
2022-12-25T20:16:26.833Z,15.00
2022-12-25T20:18:56.578Z,15.00
2022-12-25T20:21:27.904Z,14.90
2022-12-25T20:23:57.361Z,14.90
2022-12-25T20:26:29.459Z,14.90
2022-12-25T20:28:59.176Z,14.90
2022-12-25T20:31:32.940Z,14.90
2022-12-25T20:34:05.956Z,14.80
2022-12-25T20:36:37.692Z,14.80
2022-12-25T20:39:10.199Z,14.70
2022-12-25T20:41:39.049Z,14.70
2022-12-25T20:44:08.809Z,14.70
2022-12-25T20:46:37.708Z,14.70
2022-12-25T20:49:06.217Z,14.70
2022-12-25T20:51:34.740Z,14.70
2022-12-25T20:54:07.032Z,14.60
2022-12-25T20:56:35.766Z,14.70
2022-12-25T20:59:03.625Z,14.70
2022-12-25T21:01:32.242Z,14.70
2022-12-25T21:04:00.565Z,14.70
2022-12-25T21:06:29.137Z,14.60
2022-12-25T21:08:57.331Z,14.60
2022-12-25T21:11:25.351Z,14.60
2022-12-25T21:13:53.722Z,14.70
2022-12-25T21:16:23.706Z,14.70
2022-12-25T21:18:54.205Z,14.70
2022-12-25T21:21:22.812Z,14.70
2022-12-25T21:23:51.556Z,14.70
2022-12-25T21:26:25.841Z,14.70
2022-12-25T21:28:57.961Z,14.70
2022-12-25T21:31:26.564Z,14.70
2022-12-25T21:33:58.217Z,14.70
2022-12-25T21:36:34.950Z,14.70
2022-12-25T21:39:06.665Z,14.70
2022-12-25T21:41:36.274Z,14.70
2022-12-25T21:44:05.559Z,14.70
2022-12-25T21:46:36.851Z,14.70
2022-12-25T21:49:05.073Z,14.70
2022-12-25T21:51:53.429Z,14.70
2022-12-25T21:54:23.378Z,14.80
2022-12-25T21:56:51.818Z,14.80
2022-12-25T21:59:22.485Z,14.80
2022-12-25T22:01:52.858Z,14.80
2022-12-25T22:04:23.435Z,14.80
2022-12-25T22:07:10.435Z,14.70
2022-12-25T22:09:38.928Z,14.70
2022-12-25T22:12:33.563Z,14.70
2022-12-25T22:15:07.064Z,14.70
2022-12-25T22:17:57.509Z,14.70
2022-12-25T22:20:36.973Z,14.70
2022-12-25T22:23:05.807Z,14.70
2022-12-25T22:25:33.813Z,14.60
2022-12-25T22:28:01.843Z,14.60
2022-12-25T22:30:30.457Z,14.60
2022-12-25T22:32:58.774Z,14.50
2022-12-25T22:35:27.005Z,14.50
2022-12-25T22:37:55.338Z,14.50
2022-12-25T22:40:23.360Z,14.50
2022-12-25T22:42:55.382Z,14.50
2022-12-25T22:45:24.602Z,14.50
2022-12-25T22:47:52.677Z,14.50
2022-12-25T22:50:21.106Z,14.50
2022-12-25T22:52:49.183Z,14.50
2022-12-25T22:55:19.435Z,14.50
2022-12-25T22:57:50.858Z,14.50
2022-12-25T23:00:19.059Z,14.40
2022-12-25T23:02:47.250Z,14.40
2022-12-25T23:05:15.895Z,14.40
2022-12-25T23:07:43.914Z,14.40
2022-12-25T23:10:12.200Z,14.40
2022-12-25T23:12:58.873Z,14.40
2022-12-25T23:15:28.472Z,14.40
2022-12-25T23:18:15.095Z,14.40
2022-12-25T23:21:01.621Z,14.40
2022-12-25T23:23:48.540Z,14.30
2022-12-25T23:26:18.782Z,14.40
2022-12-25T23:29:05.630Z,14.40
2022-12-25T23:31:40.023Z,14.40
2022-12-25T23:34:10.357Z,14.30
2022-12-25T23:36:38.308Z,14.30
2022-12-25T23:39:10.136Z,14.20
2022-12-25T23:41:42.111Z,14.20
2022-12-25T23:44:12.339Z,14.20
2022-12-25T23:46:41.762Z,14.10
2022-12-25T23:49:22.607Z,14.10
2022-12-25T23:51:51.346Z,14.10
2022-12-25T23:54:25.458Z,14.10
2022-12-25T23:56:53.670Z,14.10
2022-12-25T23:59:21.600Z,14.10
